This is the latest recevied weather packets stored in our database for station/object SP9TWP-3. If no packets are shown the sender has not sent any weather packets the latest 10 day(s).
| Time | Temp. | Humidity | Pressure | Rain* | Wind** | Luminosity | Snow |
|---|---|---|---|---|---|---|---|
| 1777646759 | 20° C | 34% | 1023 hPa | - | - | - | - |
| 1777645859 | 20° C | 33% | 1023 hPa | - | - | - | - |
| 1777644959 | 20° C | 33% | 1023.2 hPa | - | - | - | - |
| 1777644058 | 20° C | 33% | 1023.2 hPa | - | - | - | - |
| 1777643410 | 21.67° C | 30% | 1023.2 hPa | - | - | - | - |
| 1777643158 | 21.67° C | 30% | 1023.2 hPa | - | - | - | - |
| 1777642258 | 20.56° C | 32% | 1023.3 hPa | - | - | - | - |
| 1777641358 | 21.67° C | 29% | 1023.5 hPa | - | - | - | - |
| 1777640458 | 21.67° C | 29% | 1023.5 hPa | - | - | - | - |
| 1777639558 | 20.56° C | 32% | 1023.6 hPa | - | - | - | - |
| 1777638657 | 21.67° C | 29% | 1023.6 hPa | - | - | - | - |
| 1777637757 | 21.67° C | 29% | 1023.9 hPa | - | - | - | - |
| 1777636856 | 21.11° C | 30% | 1024 hPa | - | - | - | - |
| 1777635956 | 20° C | 32% | 1024.1 hPa | - | - | - | - |
| 1777635056 | 20.56° C | 31% | 1024.1 hPa | - | - | - | - |
| 1777634156 | 21.11° C | 31% | 1024.2 hPa | - | - | - | - |
| 1777633256 | 19.44° C | 33% | 1024.4 hPa | - | - | - | - |
| 1777632355 | 19.44° C | 34% | 1024.4 hPa | - | - | - | - |
| 1777631455 | 18.89° C | 34% | 1024.5 hPa | - | - | - | - |
| 1777630555 | 18.89° C | 35% | 1024.5 hPa | - | - | - | - |
| 1777629655 | 18.33° C | 35% | 1024.7 hPa | - | - | - | - |
| 1777628755 | 17.78° C | 35% | 1024.7 hPa | - | - | - | - |
| 1777627855 | 17.22° C | 36% | 1025 hPa | - | - | - | - |
| 1777626954 | 17.78° C | 35% | 1025.1 hPa | - | - | - | - |
| 1777626054 | 17.78° C | 35% | 1025.2 hPa | - | - | - | - |
* Rain since midnight (hover to see other rain measurements)
** Current wind speed in m/s (hover to see current wind gust speed)